North Grosvendale, Connecticut
Current Conditions -  °F | °C
As of 7:54 PM on Sunday 21 Dec 2014 (Local Time) from KORH Reporting Station
Overcast Overcast  
Wind Chill: 23°   Ceiling: 4000
Heat Index: 29°   Visibility: 10mi
Dew Point: 27°   Wind: 6mph
Humidity: 92%   Direction: 20°NNE
Pressure: 30.3"   Gusts: NA
Location:  41.987°N, 71.9027°W
Report Text: KORH 220054Z 02005KT 10SM SCT008 BKN040 OVC048 M02/M03 A3030 RMK AO2 SLP276 T10171028
Loading
Personal Weather Stations






























Interactive Weather Map New forecast layout! Learn more

10-Day Weather Forecast

Advertisements
Track Severe Weather on mobile